Time;durP1;ratioP1;P1;durP2;ratioP2;P2;SDS_P1;SDS_P2;PMS_P1;PMS_P2;Temp;Humidity;BMP_temperature;BMP_pressure;BME280_temperature;BME280_humidity;BME280_pressure;Samples;Min_cycle;Max_cycle;Signal;HPM_P1;HPM_P2
2022/01/01 00:01:44;;;;;;;45.33;37.83;;;11.90;99.90;;;;;;5074880;28;20209;-67
2022/01/01 00:04:10;;;;;;;23.70;18.93;;;11.90;99.90;;;;;;5074694;28;20205;-65
2022/01/01 00:06:38;;;;;;;19.43;15.33;;;11.90;99.90;;;;;;5074688;28;20201;-63
2022/01/01 00:09:05;;;;;;;19.67;15.17;;;11.80;99.90;;;;;;5074423;28;20653;-65
2022/01/01 00:11:33;;;;;;;19.40;15.30;;;11.80;99.90;;;;;;5074816;28;20254;-63
2022/01/01 00:13:59;;;;;;;19.40;15.23;;;11.70;99.90;;;;;;5074152;28;20209;-63
2022/01/01 00:16:26;;;;;;;21.33;17.00;;;11.70;99.90;;;;;;5074352;28;20598;-65
2022/01/01 00:18:53;;;;;;;20.67;16.60;;;11.70;99.90;;;;;;5074280;28;20205;-65
2022/01/01 00:21:19;;;;;;;22.37;17.13;;;11.70;99.90;;;;;;5074156;28;20224;-65
2022/01/01 00:23:46;;;;;;;23.77;17.73;;;11.60;99.90;;;;;;5073920;28;20247;-65
2022/01/01 00:26:14;;;;;;;22.47;17.03;;;11.60;99.90;;;;;;5074266;28;20209;-65
2022/01/01 00:28:42;;;;;;;25.50;18.07;;;11.50;99.90;;;;;;5074491;28;20205;-65
2022/01/01 00:31:09;;;;;;;27.13;19.10;;;11.70;99.90;;;;;;5074189;28;20316;-65
2022/01/01 00:33:36;;;;;;;24.87;19.00;;;11.60;99.90;;;;;;5074329;28;20211;-65
2022/01/01 00:36:03;;;;;;;26.13;19.40;;;11.60;99.90;;;;;;5074231;28;20233;-65
2022/01/01 00:38:29;;;;;;;23.50;18.73;;;11.70;99.90;;;;;;5075117;28;20211;-65
2022/01/01 00:40:56;;;;;;;22.00;17.63;;;11.60;99.90;;;;;;5074186;28;20728;-64
2022/01/01 00:43:24;;;;;;;26.20;18.50;;;11.80;99.90;;;;;;5074025;28;20212;-68
2022/01/01 00:45:52;;;;;;;21.07;17.53;;;11.80;99.90;;;;;;5073554;28;20295;-63
2022/01/01 00:48:19;;;;;;;22.63;17.57;;;11.90;99.90;;;;;;5074255;28;20559;-65
2022/01/01 00:50:46;;;;;;;22.20;18.07;;;11.90;99.90;;;;;;5073967;28;20233;-64
2022/01/01 00:53:12;;;;;;;23.03;16.93;;;11.90;99.90;;;;;;5073580;28;20217;-64
2022/01/01 00:55:39;;;;;;;21.73;17.50;;;11.90;99.90;;;;;;5073481;28;20258;-65
2022/01/01 00:58:06;;;;;;;22.00;17.43;;;12.00;99.90;;;;;;5073697;28;20205;-65
2022/01/01 01:00:32;;;;;;;24.23;18.43;;;12.10;99.90;;;;;;5073482;28;20229;-65
2022/01/01 01:03:00;;;;;;;24.73;17.87;;;12.30;99.90;;;;;;5073573;28;20209;-65
2022/01/01 01:05:27;;;;;;;22.17;17.47;;;12.30;99.90;;;;;;5073112;28;20208;-64
2022/01/01 01:07:54;;;;;;;23.50;18.03;;;12.40;99.90;;;;;;5073537;28;20216;-65
2022/01/01 01:10:20;;;;;;;25.23;19.33;;;12.60;99.90;;;;;;5073729;28;20281;-67
2022/01/01 01:12:48;;;;;;;25.97;19.90;;;12.70;99.90;;;;;;5073438;28;20216;-65
2022/01/01 01:15:17;;;;;;;24.23;18.13;;;12.80;99.90;;;;;;5073046;28;20225;-64
2022/01/01 01:17:46;;;;;;;23.40;18.77;;;13.00;99.90;;;;;;5073950;28;20236;-66
2022/01/01 01:20:14;;;;;;;27.63;20.93;;;13.10;99.90;;;;;;5073434;28;20236;-65
2022/01/01 01:22:41;;;;;;;26.20;20.67;;;13.10;99.90;;;;;;5073590;28;20339;-64
2022/01/01 01:25:09;;;;;;;25.80;19.83;;;13.00;99.90;;;;;;5073272;28;20209;-65
2022/01/01 01:27:37;;;;;;;23.40;18.93;;;13.00;99.90;;;;;;5073310;28;20208;-66
2022/01/01 01:30:06;;;;;;;25.73;20.03;;;12.90;99.90;;;;;;5073074;28;20609;-65
2022/01/01 01:32:33;;;;;;;26.30;21.00;;;12.90;99.90;;;;;;5073124;28;20284;-65
2022/01/01 01:35:00;;;;;;;28.43;20.90;;;12.90;99.90;;;;;;5072366;28;20699;-65
2022/01/01 01:37:29;;;;;;;28.67;21.73;;;13.00;99.90;;;;;;5072342;28;20495;-65
2022/01/01 01:39:56;;;;;;;27.70;21.37;;;13.00;99.90;;;;;;5092011;22;20320;-65
2022/01/01 01:42:24;;;;;;;29.03;21.97;;;13.10;99.90;;;;;;5052458;28;20228;-66
2022/01/01 01:44:53;;;;;;;27.43;20.67;;;13.20;99.90;;;;;;5032733;28;20206;-66
2022/01/01 01:47:28;;;;;;;26.83;20.77;;;13.20;99.90;;;;;;5032784;28;20288;-66
2022/01/01 01:49:56;;;;;;;24.33;19.23;;;13.10;99.90;;;;;;5032573;28;20599;-67
2022/01/01 01:52:24;;;;;;;23.30;18.83;;;13.10;99.90;;;;;;5032674;28;20670;-67
2022/01/01 01:54:53;;;;;;;21.17;17.17;;;13.10;99.90;;;;;;5032237;28;20302;-67
2022/01/01 01:57:20;;;;;;;20.40;16.30;;;13.10;99.90;;;;;;5032217;28;20222;-66
2022/01/01 01:59:47;;;;;;;17.80;14.53;;;13.10;99.90;;;;;;5032626;28;20222;-66
2022/01/01 02:02:14;;;;;;;15.63;11.70;;;13.10;99.90;;;;;;5032608;28;20206;-67
2022/01/01 02:04:41;;;;;;;15.87;10.93;;;13.10;99.90;;;;;;5032193;28;20708;-67
2022/01/01 02:07:08;;;;;;;13.90;10.50;;;13.10;99.90;;;;;;5032628;28;20206;-66
2022/01/01 02:09:35;;;;;;;14.30;11.23;;;13.10;99.90;;;;;;5032265;28;20623;-66
2022/01/01 02:12:05;;;;;;;15.70;10.00;;;13.10;99.90;;;;;;5032231;28;20206;-67
2022/01/01 02:14:49;;;;;;;15.80;10.70;;;13.10;99.90;;;;;;5032067;28;20538;-67
2022/01/01 02:17:17;;;;;;;13.67;10.10;;;13.20;99.90;;;;;;5032275;28;20642;-66
2022/01/01 02:19:55;;;;;;;15.87;9.97;;;13.20;99.90;;;;;;5032040;28;20284;-67
2022/01/01 02:22:24;;;;;;;13.47;9.90;;;13.20;99.90;;;;;;5032032;28;20216;-67
2022/01/01 02:24:51;;;;;;;12.20;9.90;;;13.20;99.90;;;;;;5031689;28;20761;-68
2022/01/01 02:27:18;;;;;;;11.00;9.20;;;13.20;99.90;;;;;;5032069;28;20213;-67
2022/01/01 02:29:45;;;;;;;14.13;10.03;;;13.20;99.90;;;;;;5031937;28;20272;-67
2022/01/01 02:32:15;;;;;;;13.30;9.77;;;13.20;99.90;;;;;;5032015;28;20272;-67
2022/01/01 02:34:42;;;;;;;15.43;10.83;;;13.10;99.90;;;;;;5031649;28;20281;-67
2022/01/01 02:37:09;;;;;;;13.60;10.97;;;13.10;99.90;;;;;;5031965;28;20222;-66
2022/01/01 02:39:37;;;;;;;14.33;10.87;;;13.10;99.90;;;;;;5031710;28;20615;-67
2022/01/01 02:42:08;;;;;;;15.53;11.87;;;13.20;99.90;;;;;;5031967;28;20213;-67
2022/01/01 02:44:34;;;;;;;14.30;11.67;;;13.20;99.90;;;;;;5031404;28;20676;-67
2022/01/01 02:47:01;;;;;;;16.33;11.70;;;13.10;99.90;;;;;;5032175;28;20202;-67
2022/01/01 02:49:28;;;;;;;15.67;10.83;;;13.20;99.90;;;;;;5035745;28;20225;-67
2022/01/01 02:51:54;;;;;;;15.07;10.47;;;13.20;99.90;;;;;;5036054;28;20214;-67
2022/01/01 02:54:21;;;;;;;13.93;10.73;;;13.20;99.90;;;;;;5035956;28;20237;-67
2022/01/01 02:56:49;;;;;;;13.93;10.93;;;13.20;99.90;;;;;;5035449;28;20229;-67
2022/01/01 02:59:16;;;;;;;14.97;10.93;;;13.20;99.90;;;;;;5035729;28;20611;-67
2022/01/01 03:01:43;;;;;;;12.57;10.53;;;13.20;99.90;;;;;;5035540;28;20230;-67
2022/01/01 03:04:10;;;;;;;14.00;10.33;;;13.20;99.90;;;;;;5035778;28;20297;-68
2022/01/01 03:06:36;;;;;;;13.43;10.13;;;13.20;99.90;;;;;;5035426;28;20647;-67
2022/01/01 03:09:03;;;;;;;14.33;10.77;;;13.20;99.90;;;;;;5035491;28;20627;-67
2022/01/01 03:11:30;;;;;;;17.37;11.20;;;13.20;99.90;;;;;;5035351;28;20596;-68
2022/01/01 03:13:58;;;;;;;12.33;9.37;;;13.20;99.90;;;;;;5035592;28;20202;-67
2022/01/01 03:16:25;;;;;;;13.20;10.23;;;13.20;99.90;;;;;;5035246;28;20236;-67
2022/01/01 03:18:52;;;;;;;14.30;10.13;;;13.30;99.90;;;;;;5035558;28;20669;-66
2022/01/01 03:21:19;;;;;;;16.77;13.67;;;13.30;99.90;;;;;;5035562;28;20226;-67
2022/01/01 03:23:46;;;;;;;14.03;10.43;;;13.30;99.90;;;;;;5035208;28;20678;-66
2022/01/01 03:26:12;;;;;;;15.33;10.83;;;13.30;99.90;;;;;;5035139;28;20210;-67
2022/01/01 03:28:39;;;;;;;15.37;11.37;;;13.30;99.90;;;;;;5035302;28;20673;-67
2022/01/01 03:31:07;;;;;;;17.57;12.77;;;13.30;99.90;;;;;;5035527;28;20620;-66
2022/01/01 03:33:34;;;;;;;15.20;12.83;;;13.20;99.90;;;;;;5035442;28;20213;-66
2022/01/01 03:36:00;;;;;;;15.03;12.27;;;13.30;99.90;;;;;;5035058;28;20222;-67
2022/01/01 03:38:29;;;;;;;17.70;13.13;;;13.10;99.90;;;;;;5035308;28;20206;-67
2022/01/01 03:40:55;;;;;;;19.07;13.10;;;13.00;99.90;;;;;;5035200;28;20240;-67
2022/01/01 03:43:22;;;;;;;18.60;13.50;;;13.00;99.90;;;;;;5036702;28;20213;-67
2022/01/01 03:45:49;;;;;;;18.77;14.20;;;12.90;99.90;;;;;;5034890;28;20268;-67
2022/01/01 03:48:17;;;;;;;17.40;13.67;;;12.90;99.90;;;;;;5035007;28;20210;-67
2022/01/01 03:50:43;;;;;;;19.17;13.43;;;12.80;99.90;;;;;;5034905;28;20234;-67
2022/01/01 03:53:11;;;;;;;18.03;14.17;;;12.80;99.90;;;;;;5035037;28;20210;-66
2022/01/01 03:55:38;;;;;;;18.20;14.17;;;12.80;99.90;;;;;;5034411;28;20210;-67
2022/01/01 03:58:04;;;;;;;17.90;13.93;;;12.80;99.90;;;;;;5034720;28;20229;-67
2022/01/01 04:00:31;;;;;;;17.00;13.90;;;12.80;99.90;;;;;;5034148;28;20234;-67
2022/01/01 04:03:06;;;;;;;17.83;14.17;;;12.80;99.90;;;;;;5034871;28;20210;-67
2022/01/01 04:05:35;;;;;;;17.70;14.17;;;12.70;99.90;;;;;;5034373;28;20245;-67
2022/01/01 04:08:02;;;;;;;17.93;13.60;;;12.70;99.90;;;;;;5034547;28;20212;-67
2022/01/01 04:10:30;;;;;;;17.83;14.57;;;12.70;99.90;;;;;;5034333;28;20230;-67
2022/01/01 04:12:57;;;;;;;18.47;14.17;;;12.70;99.90;;;;;;5034767;28;20202;-67
2022/01/01 04:15:24;;;;;;;17.33;13.87;;;12.70;99.90;;;;;;5034271;28;20217;-67
2022/01/01 04:17:56;;;;;;;19.57;13.43;;;12.70;99.90;;;;;;5034516;28;20226;-67
2022/01/01 04:20:23;;;;;;;16.70;13.37;;;12.70;99.90;;;;;;5034327;28;20230;-67
2022/01/01 04:22:51;;;;;;;18.47;13.77;;;12.60;99.90;;;;;;5034187;28;20202;-67
2022/01/01 04:25:18;;;;;;;17.33;13.63;;;12.60;99.90;;;;;;5034163;28;20202;-66
2022/01/01 04:27:44;;;;;;;17.57;13.40;;;12.60;99.90;;;;;;5034290;28;20206;-67
2022/01/01 04:30:12;;;;;;;19.50;14.53;;;12.50;99.90;;;;;;5035293;28;20230;-66
2022/01/01 04:32:38;;;;;;;18.67;13.40;;;12.50;99.90;;;;;;5035171;28;20207;-67
2022/01/01 04:35:06;;;;;;;18.87;14.63;;;12.50;99.90;;;;;;5034576;28;20206;-67
2022/01/01 04:37:33;;;;;;;21.43;15.70;;;12.40;99.90;;;;;;5035217;28;20218;-67
2022/01/01 04:40:01;;;;;;;21.40;14.83;;;12.40;99.90;;;;;;5034334;28;20234;-66
2022/01/01 04:42:28;;;;;;;17.93;13.87;;;12.50;99.90;;;;;;5034070;28;20241;-66
2022/01/01 04:44:55;;;;;;;17.87;13.67;;;12.40;99.90;;;;;;5033750;28;20214;-66
2022/01/01 04:47:21;;;;;;;17.27;12.63;;;12.40;99.90;;;;;;5033985;28;20202;-66
2022/01/01 04:49:48;;;;;;;17.20;13.40;;;12.40;99.90;;;;;;5033755;28;20276;-66
2022/01/01 04:52:15;;;;;;;13.70;12.07;;;12.40;99.90;;;;;;5033649;28;20686;-66
2022/01/01 04:54:43;;;;;;;15.83;12.60;;;12.30;99.90;;;;;;5033619;28;20210;-66
2022/01/01 04:57:12;;;;;;;14.60;11.33;;;12.20;99.90;;;;;;5033617;28;20223;-66
2022/01/01 04:59:39;;;;;;;15.03;11.83;;;12.10;99.90;;;;;;5033539;28;20319;-66
2022/01/01 05:02:06;;;;;;;15.00;11.63;;;12.00;99.90;;;;;;5033777;28;20229;-66
2022/01/01 05:04:33;;;;;;;17.23;11.37;;;11.90;99.90;;;;;;5033542;28;20257;-66
2022/01/01 05:07:00;;;;;;;13.40;10.77;;;11.80;99.90;;;;;;5033105;28;20209;-66
2022/01/01 05:09:29;;;;;;;13.93;10.83;;;11.60;99.90;;;;;;5033425;28;20279;-66
2022/01/01 05:11:56;;;;;;;16.10;11.60;;;11.50;99.90;;;;;;5033403;28;20216;-66
2022/01/01 05:14:24;;;;;;;14.13;10.07;;;11.50;99.90;;;;;;5033364;28;20691;-66
2022/01/01 05:16:51;;;;;;;17.83;12.27;;;11.50;99.90;;;;;;5032928;28;20632;-66
2022/01/01 05:19:19;;;;;;;15.47;10.33;;;11.40;99.90;;;;;;5033175;28;20218;-66
2022/01/01 05:21:46;;;;;;;16.50;11.47;;;11.30;99.90;;;;;;5033340;28;20293;-66
2022/01/01 05:24:17;;;;;;;16.93;11.77;;;11.10;99.90;;;;;;5033275;28;20207;-66
2022/01/01 05:26:44;;;;;;;16.67;11.77;;;10.90;99.90;;;;;;5033101;28;20230;-66
2022/01/01 05:29:11;;;;;;;17.00;11.77;;;10.70;99.90;;;;;;5033126;28;20260;-66
2022/01/01 05:31:39;;;;;;;17.70;12.73;;;10.70;99.90;;;;;;5032989;28;20291;-66
2022/01/01 05:34:06;;;;;;;16.20;12.87;;;10.70;99.90;;;;;;5033120;28;20206;-66
2022/01/01 05:36:33;;;;;;;16.20;12.73;;;10.60;99.90;;;;;;5032681;28;20226;-66
2022/01/01 05:39:00;;;;;;;17.40;13.60;;;10.60;99.90;;;;;;5033117;28;20629;-66
2022/01/01 05:41:27;;;;;;;19.60;14.03;;;10.60;99.90;;;;;;5032834;28;20234;-66
2022/01/01 05:43:54;;;;;;;17.93;14.00;;;10.60;99.90;;;;;;5032742;28;20571;-66
2022/01/01 05:46:20;;;;;;;16.97;13.93;;;10.60;99.90;;;;;;5032387;28;20206;-66
2022/01/01 05:48:48;;;;;;;23.20;16.07;;;10.50;99.90;;;;;;5032585;28;20620;-66
2022/01/01 05:51:15;;;;;;;19.57;14.57;;;10.50;99.90;;;;;;5032629;28;20288;-66
2022/01/01 05:53:42;;;;;;;21.43;15.30;;;10.50;99.90;;;;;;5032718;28;20217;-66
2022/01/01 05:56:08;;;;;;;25.50;15.93;;;10.50;99.90;;;;;;5032437;28;20206;-66
2022/01/01 05:58:35;;;;;;;20.93;15.93;;;10.50;99.90;;;;;;5032424;28;20230;-66
2022/01/01 06:01:02;;;;;;;24.57;16.77;;;10.50;99.90;;;;;;5032347;28;20233;-66
2022/01/01 06:03:29;;;;;;;20.97;15.77;;;10.50;99.90;;;;;;5032362;28;20202;-66
2022/01/01 06:05:57;;;;;;;20.73;16.13;;;10.40;99.90;;;;;;5032080;28;20214;-66
2022/01/01 06:08:24;;;;;;;23.53;16.90;;;10.30;99.90;;;;;;5032333;28;20214;-66
2022/01/01 06:10:51;;;;;;;21.50;16.10;;;10.30;99.90;;;;;;5032432;28;20230;-66
2022/01/01 06:13:17;;;;;;;21.10;16.17;;;10.30;99.90;;;;;;5032221;28;20264;-66
2022/01/01 06:15:44;;;;;;;21.43;16.60;;;10.30;99.90;;;;;;5032380;28;20210;-66
2022/01/01 06:18:11;;;;;;;24.07;17.10;;;10.40;99.90;;;;;;5032415;28;20569;-66
2022/01/01 06:20:38;;;;;;;21.40;15.70;;;10.60;99.90;;;;;;5032144;28;20647;-66
2022/01/01 06:23:07;;;;;;;21.93;15.53;;;10.70;99.90;;;;;;5032007;28;20210;-66
2022/01/01 06:25:34;;;;;;;20.43;15.47;;;10.80;99.90;;;;;;5032029;28;20206;-66
2022/01/01 06:28:01;;;;;;;25.03;15.90;;;10.80;99.90;;;;;;5031950;28;20617;-66
2022/01/01 06:30:33;;;;;;;21.43;16.03;;;11.00;99.90;;;;;;5032280;28;20280;-66
2022/01/01 06:33:00;;;;;;;21.03;15.27;;;11.20;99.90;;;;;;5032200;28;20244;-67
2022/01/01 06:35:27;;;;;;;22.97;15.97;;;11.30;99.90;;;;;;5031890;28;20214;-67
2022/01/01 06:37:53;;;;;;;20.27;14.57;;;11.40;99.90;;;;;;5032211;28;20226;-67
2022/01/01 06:40:22;;;;;;;18.20;13.77;;;11.50;99.90;;;;;;5031796;28;20292;-67
2022/01/01 06:42:48;;;;;;;17.60;13.60;;;11.70;99.90;;;;;;5032238;28;20256;-67
2022/01/01 06:45:15;;;;;;;16.93;13.80;;;11.70;99.90;;;;;;5031832;28;20206;-67
2022/01/01 06:47:42;;;;;;;16.07;12.13;;;11.80;99.90;;;;;;5032048;28;20252;-66
2022/01/01 06:50:10;;;;;;;17.33;13.13;;;11.90;99.90;;;;;;5032044;28;20272;-67
2022/01/01 06:52:42;;;;;;;14.47;11.77;;;11.90;99.90;;;;;;5031885;28;20217;-66
2022/01/01 06:55:10;;;;;;;15.47;11.00;;;11.90;99.90;;;;;;5031648;28;20210;-66
2022/01/01 06:57:38;;;;;;;14.77;11.07;;;11.90;99.90;;;;;;5031812;28;20237;-66
2022/01/01 07:00:06;;;;;;;14.33;10.30;;;12.00;99.90;;;;;;5031794;28;20272;-66
2022/01/01 07:02:38;;;;;;;13.53;10.87;;;12.00;99.90;;;;;;5031673;28;20585;-66
2022/01/01 07:05:05;;;;;;;17.07;10.83;;;12.00;99.90;;;;;;5031513;28;20293;-66
2022/01/01 07:07:32;;;;;;;16.30;12.27;;;12.00;99.90;;;;;;5031438;28;20202;-67
2022/01/01 07:09:59;;;;;;;16.43;11.70;;;11.90;99.90;;;;;;5031703;28;20226;-66
2022/01/01 07:12:26;;;;;;;15.23;12.43;;;11.80;99.90;;;;;;5031714;28;20218;-67
2022/01/01 07:14:54;;;;;;;19.43;14.83;;;11.80;99.90;;;;;;5031332;28;20210;-66
2022/01/01 07:17:20;;;;;;;22.67;16.57;;;11.80;99.90;;;;;;5031657;28;20277;-67
2022/01/01 07:19:47;;;;;;;23.47;16.53;;;11.80;99.90;;;;;;5031532;28;20234;-67
2022/01/01 07:22:14;;;;;;;22.23;16.17;;;11.70;99.90;;;;;;5031721;28;20217;-66
2022/01/01 07:24:40;;;;;;;23.47;15.50;;;11.60;99.90;;;;;;5032162;28;20206;-66
2022/01/01 07:27:07;;;;;;;19.70;15.20;;;11.60;99.90;;;;;;5031502;28;20658;-67
2022/01/01 07:29:34;;;;;;;16.30;13.27;;;11.50;99.90;;;;;;5031764;28;20206;-67
2022/01/01 07:32:02;;;;;;;14.00;11.50;;;11.40;99.90;;;;;;5031423;28;20206;-67
2022/01/01 07:34:28;;;;;;;14.00;11.30;;;11.50;99.90;;;;;;5032653;28;20202;-67
2022/01/01 07:36:55;;;;;;;13.60;9.37;;;11.50;99.90;;;;;;5034735;28;20210;-67
2022/01/01 07:39:22;;;;;;;14.23;10.30;;;11.60;99.90;;;;;;5035199;28;20206;-66
2022/01/01 07:41:48;;;;;;;16.13;10.93;;;11.80;99.90;;;;;;5075293;22;20230;-59
2022/01/01 07:44:15;;;;;;;15.73;12.07;;;11.80;99.90;;;;;;5055333;28;20201;-57
2022/01/01 07:46:42;;;;;;;14.23;11.10;;;11.80;99.90;;;;;;5054751;28;20216;-57
2022/01/01 07:49:10;;;;;;;15.90;11.60;;;11.80;99.90;;;;;;5054771;28;20197;-57
2022/01/01 07:51:37;;;;;;;14.10;10.50;;;11.80;99.90;;;;;;5055011;28;20229;-58
2022/01/01 07:54:04;;;;;;;12.17;9.70;;;11.90;99.90;;;;;;5055031;28;20209;-58
2022/01/01 07:56:30;;;;;;;11.80;9.20;;;11.90;99.90;;;;;;5054578;28;20201;-59
2022/01/01 07:58:57;;;;;;;11.27;9.00;;;12.00;99.90;;;;;;5054749;28;20597;-57
2022/01/01 08:01:24;;;;;;;14.77;10.13;;;12.00;99.90;;;;;;5054659;28;20233;-57
2022/01/01 08:03:50;;;;;;;11.13;9.40;;;12.00;99.90;;;;;;5054533;28;20210;-59
2022/01/01 08:06:18;;;;;;;10.83;9.43;;;12.00;99.90;;;;;;5054447;28;20209;-58
2022/01/01 08:08:45;;;;;;;12.70;9.40;;;12.00;99.90;;;;;;5054547;28;20731;-58
2022/01/01 08:11:12;;;;;;;13.77;9.13;;;12.10;99.90;;;;;;5054519;28;20226;-57
2022/01/01 08:13:38;;;;;;;17.00;13.67;;;12.20;99.90;;;;;;5054553;28;20212;-58
2022/01/01 08:16:07;;;;;;;13.73;9.53;;;12.30;99.90;;;;;;5054200;28;20210;-58
2022/01/01 08:18:34;;;;;;;12.67;9.77;;;12.30;99.90;;;;;;5054122;28;20708;-58
2022/01/01 08:21:00;;;;;;;14.27;11.23;;;12.30;99.90;;;;;;5054403;28;20713;-58
2022/01/01 08:23:28;;;;;;;14.57;8.87;;;12.30;99.90;;;;;;5054347;28;20213;-58
2022/01/01 08:25:56;;;;;;;13.77;9.27;;;12.40;99.90;;;;;;5054001;28;20714;-57
2022/01/01 08:28:23;;;;;;;12.57;9.00;;;12.40;99.90;;;;;;5054235;28;20216;-57
2022/01/01 08:30:49;;;;;;;10.87;8.90;;;12.50;99.90;;;;;;5054054;28;20303;-56
2022/01/01 08:33:16;;;;;;;13.27;9.30;;;12.60;99.90;;;;;;5054453;28;20214;-58
2022/01/01 08:35:43;;;;;;;12.37;8.73;;;12.70;99.90;;;;;;5054001;28;20213;-58
2022/01/01 08:38:10;;;;;;;10.00;8.07;;;12.80;99.90;;;;;;5054102;28;20230;-57
2022/01/01 08:40:38;;;;;;;9.87;8.00;;;12.80;99.90;;;;;;5053852;28;20240;-58
2022/01/01 08:43:05;;;;;;;12.40;8.97;;;12.70;99.90;;;;;;5053812;28;20209;-57
2022/01/01 08:45:32;;;;;;;11.57;8.80;;;12.60;99.90;;;;;;5053025;28;20269;-57
2022/01/01 08:47:59;;;;;;;9.50;7.33;;;12.50;99.90;;;;;;5053816;28;20213;-59
2022/01/01 08:50:26;;;;;;;9.07;7.60;;;12.50;99.90;;;;;;5054108;28;20225;-58
2022/01/01 08:52:52;;;;;;;9.97;7.70;;;12.60;99.90;;;;;;5053772;28;20305;-58
2022/01/01 08:55:19;;;;;;;10.57;8.10;;;12.60;99.90;;;;;;5053529;28;20201;-57
2022/01/01 08:57:47;;;;;;;10.07;7.80;;;12.50;99.90;;;;;;5053485;28;20601;-58
2022/01/01 09:00:15;;;;;;;9.90;7.57;;;12.30;99.90;;;;;;5054054;28;20283;-57
2022/01/01 09:02:41;;;;;;;9.60;8.17;;;12.10;99.90;;;;;;5053739;28;20210;-57
2022/01/01 09:05:09;;;;;;;13.40;8.40;;;12.00;99.90;;;;;;5053425;28;20201;-56
2022/01/01 09:07:36;;;;;;;10.77;7.80;;;12.10;99.90;;;;;;5053307;28;20673;-58
2022/01/01 09:10:05;;;;;;;11.53;7.63;;;12.30;99.90;;;;;;5053336;28;20249;-58
2022/01/01 09:12:32;;;;;;;10.80;7.50;;;12.50;99.90;;;;;;5053196;28;20681;-59
2022/01/01 09:15:00;;;;;;;10.15;8.38;;;12.50;99.90;;;;;;5051896;28;20443;-60
2022/01/01 09:17:27;;;;;;;11.37;7.77;;;12.60;99.90;;;;;;5052734;28;20688;-63
2022/01/01 09:19:54;;;;;;;8.30;6.90;;;12.80;99.90;;;;;;5053179;28;20213;-59
2022/01/01 09:22:21;;;;;;;11.13;7.90;;;13.00;99.90;;;;;;5053669;28;20202;-59
2022/01/01 09:24:47;;;;;;;11.17;7.17;;;13.20;99.90;;;;;;5053301;28;20615;-59
2022/01/01 09:27:14;;;;;;;9.37;6.67;;;13.30;99.90;;;;;;5052691;28;20209;-59
2022/01/01 09:29:41;;;;;;;9.93;7.23;;;13.40;99.90;;;;;;5053084;28;20209;-59
2022/01/01 09:32:10;;;;;;;8.37;6.23;;;13.80;99.90;;;;;;5053020;28;20201;-60
2022/01/01 09:34:37;;;;;;;8.43;6.47;;;13.90;99.90;;;;;;5053258;28;20469;-59
2022/01/01 09:37:04;;;;;;;7.47;6.20;;;14.10;99.90;;;;;;5052894;28;20209;-59
2022/01/01 09:39:31;;;;;;;11.20;6.70;;;14.10;99.90;;;;;;5052832;28;20232;-59
2022/01/01 09:41:58;;;;;;;8.37;6.80;;;14.20;99.90;;;;;;5052966;28;20240;-60
2022/01/01 09:44:25;;;;;;;6.83;5.53;;;14.20;99.90;;;;;;5053311;28;20212;-59
2022/01/01 09:46:52;;;;;;;6.47;5.63;;;13.90;99.90;;;;;;5052877;28;20202;-60
2022/01/01 09:49:20;;;;;;;6.07;5.30;;;13.70;99.90;;;;;;5053000;28;20213;-59
2022/01/01 09:51:47;;;;;;;6.50;5.07;;;13.70;99.90;;;;;;5053027;28;20232;-59
2022/01/01 09:54:14;;;;;;;8.07;5.80;;;13.70;99.90;;;;;;5053019;28;20582;-59
2022/01/01 09:56:41;;;;;;;6.80;5.30;;;13.90;99.90;;;;;;5052088;28;20201;-60
2022/01/01 09:59:08;;;;;;;7.50;5.57;;;14.00;99.90;;;;;;5053016;28;20229;-60
2022/01/01 10:01:35;;;;;;;8.53;5.60;;;14.00;99.90;;;;;;5053160;28;20225;-59
2022/01/01 10:04:11;;;;;;;6.20;5.00;;;14.10;99.90;;;;;;5052676;28;20292;-59
2022/01/01 10:06:39;;;;;;;6.57;4.93;;;14.10;99.90;;;;;;5052512;28;20206;-58
2022/01/01 10:09:08;;;;;;;8.47;5.23;;;13.90;99.90;;;;;;5052662;28;20214;-59
2022/01/01 10:11:36;;;;;;;6.13;4.87;;;13.90;99.90;;;;;;5052786;28;20225;-59
2022/01/01 10:14:06;;;;;;;6.37;4.80;;;14.00;99.90;;;;;;5052693;28;20216;-60
2022/01/01 10:16:34;;;;;;;27.77;22.70;;;14.10;99.90;;;;;;5052570;28;20279;-59
2022/01/01 10:19:03;;;;;;;16.43;12.20;;;14.20;99.90;;;;;;5052762;28;20221;-59
2022/01/01 10:21:34;;;;;;;7.93;5.37;;;14.10;99.90;;;;;;5052700;28;20713;-60
2022/01/01 10:24:02;;;;;;;7.77;5.00;;;14.10;99.90;;;;;;5052927;28;20209;-59
2022/01/01 10:29:17;;;;;;;5.27;4.50;;;14.30;99.90;;;;;;5052609;28;20229;-59
2022/01/01 10:31:58;;;;;;;5.53;4.57;;;14.40;99.90;;;;;;5052353;28;20226;-59
2022/01/01 10:34:27;;;;;;;6.10;4.63;;;14.50;99.90;;;;;;5052645;28;20643;-60
2022/01/01 10:36:55;;;;;;;5.47;4.23;;;14.50;99.90;;;;;;5052735;28;20209;-59
2022/01/01 10:39:24;;;;;;;5.47;4.50;;;14.50;99.90;;;;;;5052314;28;20229;-59
2022/01/01 10:41:54;;;;;;;6.63;4.50;;;14.40;99.90;;;;;;5052148;28;20237;-59
2022/01/01 10:44:28;;;;;;;6.77;4.60;;;14.40;99.90;;;;;;5052138;28;20217;-59
2022/01/01 10:46:55;;;;;;;7.57;6.17;;;14.60;99.90;;;;;;5052096;28;20472;-59
2022/01/01 10:49:49;;;;;;;11.90;8.30;;;14.60;99.90;;;;;;5051941;28;20593;-60
2022/01/01 10:52:22;;;;;;;5.50;4.30;;;14.70;99.90;;;;;;5052088;28;20233;-59
2022/01/01 10:54:55;;;;;;;7.23;4.43;;;14.80;99.90;;;;;;5052055;28;20201;-59
2022/01/01 10:57:26;;;;;;;5.50;4.90;;;14.90;99.90;;;;;;5051923;28;20574;-60
2022/01/01 11:00:08;;;;;;;8.03;5.83;;;14.90;99.90;;;;;;5051891;28;20237;-59
2022/01/01 11:02:36;;;;;;;6.67;4.87;;;15.00;99.90;;;;;;5051981;28;20692;-59
2022/01/01 11:05:04;;;;;;;6.80;4.67;;;15.10;99.90;;;;;;5051503;28;20205;-59
2022/01/01 11:07:31;;;;;;;7.27;4.77;;;15.20;99.90;;;;;;5051606;28;20259;-59
2022/01/01 11:10:00;;;;;;;5.27;3.93;;;15.30;99.90;;;;;;5055507;28;20205;-59
2022/01/01 11:12:28;;;;;;;5.10;3.67;;;15.40;99.90;;;;;;5055941;28;20259;-58
2022/01/01 11:14:57;;;;;;;4.97;2.93;;;15.60;99.90;;;;;;5055579;28;20209;-60
2022/01/01 11:17:24;;;;;;;3.93;3.00;;;15.70;99.90;;;;;;5055337;28;20213;-58
2022/01/01 11:19:51;;;;;;;25.67;19.83;;;15.80;99.90;;;;;;5055491;28;20232;-59
2022/01/01 11:22:19;;;;;;;5.33;3.50;;;15.90;99.90;;;;;;5056058;28;20201;-59
2022/01/01 11:24:46;;;;;;;4.90;3.90;;;16.00;99.90;;;;;;5056509;28;20300;-60
2022/01/01 11:27:15;;;;;;;5.80;4.07;;;16.00;99.90;;;;;;5056220;28;20213;-58
2022/01/01 11:29:49;;;;;;;6.10;3.77;;;16.00;99.90;;;;;;5055944;28;20201;-59
2022/01/01 11:32:18;;;;;;;5.83;4.50;;;16.00;99.90;;;;;;5056024;28;20209;-60
2022/01/01 11:34:47;;;;;;;6.00;4.93;;;16.10;99.90;;;;;;5056167;28;20201;-58
2022/01/01 11:37:15;;;;;;;10.80;8.00;;;16.00;99.90;;;;;;5055310;28;20240;-59
2022/01/01 11:39:42;;;;;;;13.73;9.10;;;16.00;99.90;;;;;;5055262;28;20233;-58
2022/01/01 11:42:11;;;;;;;12.60;9.03;;;16.00;99.90;;;;;;5055507;28;20201;-57
2022/01/01 11:44:42;;;;;;;11.83;8.80;;;16.10;99.90;;;;;;5055184;28;20206;-56
2022/01/01 11:47:17;;;;;;;15.00;9.33;;;16.20;99.90;;;;;;5055127;28;20213;-57
2022/01/01 11:49:44;;;;;;;13.77;9.57;;;16.30;99.90;;;;;;5055276;28;20209;-56
2022/01/01 11:52:11;;;;;;;13.40;9.13;;;16.40;99.90;;;;;;5055013;28;20213;-57
2022/01/01 11:54:40;;;;;;;13.37;8.40;;;16.60;99.90;;;;;;5055180;28;20205;-57
2022/01/01 11:57:19;;;;;;;9.33;6.83;;;16.70;99.90;;;;;;5054379;28;20275;-56
2022/01/01 12:00:00;;;;;;;7.53;5.80;;;16.90;99.90;;;;;;5054893;28;20276;-57
2022/01/01 12:02:38;;;;;;;6.77;5.20;;;17.10;99.90;;;;;;5054728;28;20273;-57
2022/01/01 12:05:14;;;;;;;6.57;5.15;;;17.20;99.90;;;;;;5049240;28;20459;-62
2022/01/01 12:07:50;;;;;;;6.90;4.60;;;17.30;99.90;;;;;;5054107;28;20207;-58
2022/01/01 12:10:19;;;;;;;8.37;4.70;;;17.20;99.90;;;;;;5052529;28;20221;-60
2022/01/01 12:12:49;;;;;;;5.53;4.20;;;17.20;99.90;;;;;;5052536;28;20577;-61
2022/01/01 12:15:33;;;;;;;6.23;4.00;;;17.30;99.90;;;;;;5054571;28;20673;-61
2022/01/01 12:18:02;;;;;;;6.67;5.13;;;17.50;99.90;;;;;;5054748;28;20245;-62
2022/01/01 12:20:31;;;;;;;6.13;4.33;;;17.60;99.90;;;;;;5054873;28;20237;-62
2022/01/01 12:23:01;;;;;;;5.13;3.85;;;17.70;99.90;;;;;;5055211;28;20684;-58
2022/01/01 12:25:30;;;;;;;5.75;3.92;;;17.60;99.90;;;;;;5054560;28;20212;-58
2022/01/01 12:27:59;;;;;;;4.33;3.50;;;17.30;99.90;;;;;;5055258;28;20209;-59
2022/01/01 12:30:39;;;;;;;4.70;3.58;;;17.20;99.90;;;;;;5055150;28;20237;-58
2022/01/01 12:33:06;;;;;;;25.73;17.13;;;17.00;99.90;;;;;;5055358;28;20255;-58
2022/01/01 12:35:55;;;;;;;10.32;7.40;;;17.10;99.90;;;;;;5054977;28;20255;-62
2022/01/01 12:38:24;;;;;;;5.40;3.70;;;17.20;99.90;;;;;;5049260;28;20209;-61
2022/01/01 12:40:59;;;;;;;4.53;3.22;;;17.30;99.90;;;;;;5054719;28;20295;-63